Time;durP1;ratioP1;P1;durP2;ratioP2;P2;SDS_P1;SDS_P2;PMS_P1;PMS_P2;Temp;Humidity;BMP_temperature;BMP_pressure;BME280_temperature;BME280_humidity;BME280_pressure;Samples;Min_cycle;Max_cycle;Signal;HPM_P1;HPM_P2
2023/08/28 00:02:20;;;;;;;0.77;0.43;;;13.90;1.00;;;;;;5075673;28;20099;-72
2023/08/28 00:04:47;;;;;;;0.73;0.60;;;13.80;1.00;;;;;;5058123;28;20048;-72
2023/08/28 00:07:13;;;;;;;0.57;0.43;;;13.80;1.00;;;;;;5059990;28;20083;-71
2023/08/28 00:09:40;;;;;;;0.75;0.60;;;13.70;53.20;;;;;;5059626;28;20048;-71
2023/08/28 00:12:07;;;;;;;0.63;0.50;;;13.70;99.90;;;;;;5040600;28;20048;-71
2023/08/28 00:14:34;;;;;;;0.90;0.50;;;13.70;99.90;;;;;;5058569;28;20500;-71
2023/08/28 00:17:01;;;;;;;0.68;0.52;;;13.60;99.90;;;;;;5060029;28;20076;-72
2023/08/28 00:19:27;;;;;;;0.28;0.28;;;13.60;99.90;;;;;;5042709;28;20053;-71
2023/08/28 00:21:54;;;;;;;0.73;0.60;;;13.50;99.90;;;;;;5042101;28;20084;-72
2023/08/28 00:24:21;;;;;;;0.65;0.40;;;13.50;99.90;;;;;;5058363;28;20048;-71
2023/08/28 00:26:48;;;;;;;0.40;0.40;;;13.40;99.90;;;;;;5040403;28;20063;-72
2023/08/28 00:29:15;;;;;;;0.35;0.35;;;13.40;99.90;;;;;;5060620;28;20055;-71
2023/08/28 00:31:42;;;;;;;0.40;0.40;;;13.40;99.90;;;;;;5059999;28;20055;-71
2023/08/28 00:34:09;;;;;;;0.40;0.40;;;13.30;99.90;;;;;;5058799;28;20503;-72
2023/08/28 00:36:36;;;;;;;0.55;0.50;;;13.20;1.00;;;;;;5052559;28;20507;-71
2023/08/28 00:39:03;;;;;;;0.30;0.28;;;13.20;1.00;;;;;;5052947;28;20167;-71
2023/08/28 00:41:30;;;;;;;0.57;0.52;;;13.20;1.00;;;;;;5056679;28;20052;-72
2023/08/28 00:43:56;;;;;;;0.57;0.50;;;13.10;1.00;;;;;;5058575;28;20154;-72
2023/08/28 00:46:23;;;;;;;0.30;0.30;;;13.10;4.20;;;;;;5053524;28;20573;-72
2023/08/28 00:48:50;;;;;;;0.55;0.55;;;13.10;75.20;;;;;;5053081;28;20131;-73
2023/08/28 00:51:17;;;;;;;0.40;0.40;;;13.10;38.90;;;;;;5043427;28;20056;-73
2023/08/28 00:53:44;;;;;;;0.50;0.50;;;13.00;68.00;;;;;;5045875;28;20056;-72
2023/08/28 00:56:10;;;;;;;0.70;0.70;;;13.00;99.90;;;;;;5060346;28;20053;-73
2023/08/28 00:58:37;;;;;;;1.23;0.73;;;13.00;99.90;;;;;;5045975;28;20048;-73
2023/08/28 01:01:04;;;;;;;0.50;0.45;;;13.00;99.90;;;;;;5042690;28;20138;-73
2023/08/28 01:03:30;;;;;;;0.60;0.50;;;13.00;99.90;;;;;;5052157;28;20063;-73
2023/08/28 01:06:23;;;;;;;0.30;0.30;;;13.00;99.90;;;;;;5062777;28;20072;-72
2023/08/28 01:09:23;;;;;;;0.50;0.50;;;12.90;99.90;;;;;;5063428;28;20122;-72
2023/08/28 01:12:01;;;;;;;0.57;0.32;;;12.90;99.90;;;;;;5060798;28;20155;-72
2023/08/28 01:14:28;;;;;;;0.57;0.57;;;12.80;99.90;;;;;;5062074;28;20152;-73
2023/08/28 01:17:00;;;;;;;0.40;0.40;;;12.70;99.90;;;;;;5045384;28;20056;-72
2023/08/28 01:19:33;;;;;;;0.40;0.40;;;12.70;99.90;;;;;;5061930;28;20057;-73
2023/08/28 01:22:22;;;;;;;0.30;0.30;;;12.70;99.90;;;;;;5063472;28;20048;-73
2023/08/28 01:24:51;;;;;;;0.57;0.40;;;12.70;99.90;;;;;;5063184;28;20068;-72
2023/08/28 01:27:19;;;;;;;0.82;0.82;;;12.70;99.90;;;;;;5060051;28;20072;-72
2023/08/28 01:30:03;;;;;;;0.55;0.55;;;12.60;99.90;;;;;;5045215;28;20110;-73
2023/08/28 01:32:29;;;;;;;;;;;12.60;99.90;;;;;;5046661;28;20044;-72
2023/08/28 01:34:56;;;;;;;0.35;0.30;;;12.50;99.90;;;;;;5069595;28;20007;-72
2023/08/28 01:37:23;;;;;;;0.68;0.40;;;12.50;99.90;;;;;;5046777;28;20549;-72
2023/08/28 01:39:50;;;;;;;0.95;0.47;;;12.50;99.90;;;;;;5048830;28;20476;-72
2023/08/28 01:42:16;;;;;;;0.50;0.50;;;12.50;1.00;;;;;;5047002;28;20052;-72
2023/08/28 01:44:43;;;;;;;0.50;0.50;;;12.40;1.00;;;;;;5032424;28;20052;-73
2023/08/28 01:47:10;;;;;;;0.40;0.40;;;12.50;1.00;;;;;;5053750;28;20091;-72
2023/08/28 01:49:37;;;;;;;0.50;0.50;;;12.50;1.00;;;;;;5069055;28;20053;-72
2023/08/28 01:52:04;;;;;;;0.47;0.47;;;12.50;1.00;;;;;;5065410;28;20114;-72
2023/08/28 01:54:31;;;;;;;0.63;0.30;;;12.50;1.00;;;;;;5066423;28;20064;-72
2023/08/28 01:56:58;;;;;;;0.70;0.45;;;12.50;1.00;;;;;;5064097;28;20610;-73
2023/08/28 01:59:24;;;;;;;0.65;0.55;;;12.50;1.00;;;;;;5064737;28;20048;-72
2023/08/28 02:01:51;;;;;;;0.50;0.50;;;12.50;1.00;;;;;;5064625;28;20090;-73
2023/08/28 02:04:18;;;;;;;0.52;0.35;;;12.50;1.00;;;;;;5065155;28;20105;-72
2023/08/28 02:06:45;;;;;;;0.80;0.45;;;12.50;1.00;;;;;;5066035;28;20171;-73
2023/08/28 02:09:11;;;;;;;0.40;0.40;;;12.50;1.00;;;;;;5048164;28;20061;-72
2023/08/28 02:11:38;;;;;;;0.55;0.40;;;12.50;1.00;;;;;;5064545;28;20106;-73
2023/08/28 02:14:05;;;;;;;0.47;0.45;;;12.50;1.00;;;;;;5066130;28;20097;-72
2023/08/28 02:16:33;;;;;;;0.50;0.45;;;12.50;1.00;;;;;;5065899;28;20048;-73
2023/08/28 02:19:00;;;;;;;0.50;0.50;;;12.50;1.00;;;;;;5066256;28;20071;-73
2023/08/28 02:21:26;;;;;;;0.50;0.47;;;12.40;1.00;;;;;;5065617;28;20546;-72
2023/08/28 02:23:53;;;;;;;0.32;0.30;;;12.40;1.00;;;;;;5064609;28;20052;-72
2023/08/28 02:26:20;;;;;;;0.40;0.40;;;12.40;1.00;;;;;;5063265;28;20067;-72
2023/08/28 02:28:47;;;;;;;0.50;0.50;;;12.40;1.00;;;;;;5066329;28;20060;-72
2023/08/28 02:31:13;;;;;;;0.75;0.50;;;12.30;8.70;;;;;;5031230;28;20053;-73
2023/08/28 02:33:41;;;;;;;0.77;0.40;;;12.40;2.70;;;;;;5047676;28;20060;-73
2023/08/28 02:36:08;;;;;;;0.32;0.30;;;12.30;1.00;;;;;;5063436;28;20447;-72
2023/08/28 02:38:34;;;;;;;1.15;0.60;;;12.30;1.00;;;;;;5065956;28;20080;-73
2023/08/28 02:41:03;;;;;;;0.60;0.50;;;12.20;1.00;;;;;;5062888;28;20049;-72
2023/08/28 02:43:30;;;;;;;0.50;0.32;;;12.20;1.00;;;;;;5064771;28;20526;-72
2023/08/28 02:45:57;;;;;;;0.75;0.57;;;12.10;1.00;;;;;;5064268;28;20541;-72
2023/08/28 02:48:23;;;;;;;0.55;0.55;;;12.10;17.80;;;;;;5065318;28;20139;-72
2023/08/28 02:50:50;;;;;;;0.50;0.30;;;12.00;88.50;;;;;;5065024;28;20040;-72
2023/08/28 02:53:17;;;;;;;0.50;0.50;;;12.00;98.20;;;;;;5064932;28;20143;-72
2023/08/28 02:56:24;;;;;;;0.70;0.70;;;12.00;90.20;;;;;;5063425;28;20096;-73
2023/08/28 02:58:52;;;;;;;0.60;0.50;;;12.00;99.50;;;;;;4991189;28;20064;-73
2023/08/28 03:01:20;;;;;;;1.02;0.40;;;12.00;95.70;;;;;;5052642;28;20484;-72
2023/08/28 03:03:49;;;;;;;1.25;0.40;;;12.00;96.00;;;;;;5063666;28;20094;-73
2023/08/28 03:06:16;;;;;;;0.77;0.52;;;12.00;99.90;;;;;;5063119;28;20190;-72
2023/08/28 03:08:43;;;;;;;0.57;0.57;;;12.00;99.90;;;;;;5063742;28;20048;-72
2023/08/28 03:11:10;;;;;;;0.50;0.50;;;11.90;99.90;;;;;;5062355;28;20555;-72
2023/08/28 03:13:36;;;;;;;0.57;0.55;;;11.90;97.20;;;;;;5046832;28;20076;-72
2023/08/28 03:16:03;;;;;;;0.63;0.40;;;11.90;98.10;;;;;;5029554;28;20106;-73
2023/08/28 03:18:30;;;;;;;1.10;0.57;;;11.80;99.90;;;;;;5064841;28;20045;-72
2023/08/28 03:20:57;;;;;;;0.85;0.50;;;11.80;99.90;;;;;;5030232;28;20049;-72
2023/08/28 03:23:24;;;;;;;0.40;0.40;;;11.80;99.90;;;;;;5063197;28;20480;-73
2023/08/28 03:25:50;;;;;;;0.50;0.50;;;11.70;99.90;;;;;;5064144;28;20158;-72
2023/08/28 03:28:17;;;;;;;0.50;0.50;;;11.70;99.90;;;;;;5063066;28;20476;-72
2023/08/28 03:30:44;;;;;;;0.30;0.30;;;11.70;99.90;;;;;;5046954;28;20053;-72
2023/08/28 03:33:11;;;;;;;0.43;0.43;;;11.70;99.90;;;;;;5064212;28;20056;-72
2023/08/28 03:35:38;;;;;;;0.32;0.32;;;11.70;99.90;;;;;;5047035;28;20552;-72
2023/08/28 03:38:05;;;;;;;0.65;0.40;;;11.70;99.90;;;;;;5064197;28;20122;-72
2023/08/28 03:40:34;;;;;;;0.60;0.47;;;11.70;99.90;;;;;;5064722;28;20056;-72
2023/08/28 03:43:00;;;;;;;0.40;0.40;;;11.60;99.90;;;;;;5061577;28;20121;-72
2023/08/28 03:45:28;;;;;;;0.28;0.28;;;11.60;99.90;;;;;;5063483;28;20048;-72
2023/08/28 03:47:54;;;;;;;0.60;0.50;;;11.60;99.90;;;;;;5063898;28;20044;-72
2023/08/28 03:50:21;;;;;;;0.40;0.40;;;11.50;99.90;;;;;;5064351;28;20045;-72
2023/08/28 03:52:48;;;;;;;0.40;0.40;;;11.50;99.90;;;;;;5063782;28;20075;-72
2023/08/28 03:55:15;;;;;;;0.50;0.50;;;11.50;99.90;;;;;;5063084;28;20056;-72
2023/08/28 03:57:42;;;;;;;0.60;0.50;;;11.40;99.90;;;;;;5062087;28;20664;-72
2023/08/28 04:00:12;;;;;;;0.32;0.32;;;11.40;99.90;;;;;;5064555;28;20048;-72
2023/08/28 04:02:39;;;;;;;0.30;0.30;;;11.40;99.90;;;;;;5063897;28;20058;-72
2023/08/28 04:05:07;;;;;;;0.32;0.32;;;11.40;99.90;;;;;;5064165;28;20045;-72
2023/08/28 04:07:34;;;;;;;0.63;0.45;;;11.30;99.90;;;;;;5063707;28;20575;-72
2023/08/28 04:10:02;;;;;;;0.30;0.30;;;11.30;99.90;;;;;;5064254;28;20441;-72
2023/08/28 04:12:29;;;;;;;0.75;0.40;;;11.30;99.90;;;;;;5028248;28;20052;-72
2023/08/28 04:14:57;;;;;;;0.30;0.30;;;11.30;99.90;;;;;;5064504;28;20574;-72
2023/08/28 04:17:24;;;;;;;0.60;0.60;;;11.20;99.90;;;;;;5063697;28;20109;-72
2023/08/28 04:19:51;;;;;;;0.47;0.47;;;11.20;99.90;;;;;;5063801;28;20052;-72
2023/08/28 04:22:19;;;;;;;1.63;0.63;;;11.20;99.90;;;;;;5045913;28;20048;-72
2023/08/28 04:24:46;;;;;;;0.57;0.57;;;11.20;99.90;;;;;;5063035;28;20470;-72
2023/08/28 04:27:13;;;;;;;0.52;0.45;;;11.10;99.90;;;;;;5030869;28;20044;-72
2023/08/28 04:29:40;;;;;;;0.32;0.32;;;11.10;99.90;;;;;;5066884;28;20061;-72
2023/08/28 04:32:07;;;;;;;0.55;0.50;;;11.10;99.90;;;;;;5066446;28;20048;-72
2023/08/28 04:34:33;;;;;;;0.30;0.30;;;11.10;99.90;;;;;;5067118;28;20143;-72
2023/08/28 04:37:00;;;;;;;0.68;0.50;;;11.10;99.90;;;;;;5066933;28;20546;-72
2023/08/28 04:39:28;;;;;;;0.50;0.50;;;11.10;99.90;;;;;;5068125;28;20136;-72
2023/08/28 04:41:54;;;;;;;0.30;0.30;;;11.10;99.90;;;;;;5048377;28;20052;-72
2023/08/28 04:44:23;;;;;;;0.52;0.40;;;11.10;99.90;;;;;;5068070;28;20529;-72
2023/08/28 04:46:50;;;;;;;0.80;0.60;;;11.10;99.90;;;;;;5049655;28;20098;-72
2023/08/28 04:49:17;;;;;;;0.50;0.50;;;11.10;99.90;;;;;;5049671;28;20048;-72
2023/08/28 04:51:44;;;;;;;0.57;0.50;;;11.00;99.90;;;;;;5067040;28;20213;-72
2023/08/28 04:54:10;;;;;;;0.50;0.50;;;11.00;99.90;;;;;;5050061;28;20421;-73
2023/08/28 04:56:37;;;;;;;0.40;0.40;;;11.00;99.90;;;;;;5047520;28;20141;-72
2023/08/28 04:59:05;;;;;;;0.25;0.25;;;11.00;99.90;;;;;;5049936;28;20488;-72
2023/08/28 05:01:32;;;;;;;0.40;0.40;;;11.00;99.90;;;;;;5067509;28;20056;-71
2023/08/28 05:03:59;;;;;;;0.38;0.38;;;11.00;99.90;;;;;;5048642;28;20068;-72
2023/08/28 05:06:26;;;;;;;0.30;0.30;;;10.90;99.90;;;;;;5041799;28;20049;-72
2023/08/28 05:08:54;;;;;;;0.40;0.40;;;10.90;99.90;;;;;;5042403;28;20102;-72
2023/08/28 05:11:20;;;;;;;0.38;0.38;;;10.90;99.90;;;;;;5060617;28;20388;-72
2023/08/28 05:13:47;;;;;;;0.40;0.40;;;10.90;99.90;;;;;;5063751;28;20072;-72
2023/08/28 05:16:14;;;;;;;0.32;0.32;;;10.90;99.90;;;;;;5061464;28;20052;-72
2023/08/28 05:18:41;;;;;;;1.38;0.60;;;10.90;99.90;;;;;;5062385;28;20044;-72
2023/08/28 05:21:09;;;;;;;0.40;0.40;;;10.90;99.90;;;;;;5045187;28;20056;-71
2023/08/28 05:23:36;;;;;;;0.40;0.40;;;10.90;99.90;;;;;;5061480;28;20102;-71
2023/08/28 05:26:03;;;;;;;0.55;0.52;;;10.90;99.90;;;;;;5044252;28;20774;-72
2023/08/28 05:28:31;;;;;;;0.40;0.40;;;10.90;99.90;;;;;;5045429;28;20407;-72
2023/08/28 05:30:58;;;;;;;0.40;0.40;;;10.90;99.90;;;;;;5063165;28;20147;-72
2023/08/28 05:33:25;;;;;;;0.40;0.30;;;10.90;99.90;;;;;;5061307;28;20041;-72
2023/08/28 05:35:51;;;;;;;0.40;0.40;;;11.00;99.90;;;;;;5062126;28;20057;-72
2023/08/28 05:38:19;;;;;;;0.55;0.40;;;11.00;99.90;;;;;;5060514;28;20155;-71
2023/08/28 05:40:46;;;;;;;0.40;0.40;;;10.90;99.90;;;;;;5061665;28;20060;-72
2023/08/28 05:43:14;;;;;;;0.63;0.50;;;11.00;99.90;;;;;;5043258;28;20492;-80
2023/08/28 05:45:40;;;;;;;0.70;0.50;;;10.90;99.90;;;;;;5044682;28;20053;-72
2023/08/28 05:48:07;;;;;;;0.40;0.40;;;11.00;99.90;;;;;;5062568;28;20105;-72
2023/08/28 05:50:36;;;;;;;0.40;0.40;;;11.00;99.90;;;;;;5043228;28;20159;-72
2023/08/28 05:53:04;;;;;;;0.40;0.40;;;11.00;99.90;;;;;;5050840;28;20078;-73
2023/08/28 05:55:31;;;;;;;0.40;0.40;;;11.10;99.90;;;;;;5050553;28;20057;-72
2023/08/28 05:57:57;;;;;;;0.82;0.60;;;11.10;99.90;;;;;;5053742;28;20072;-73
2023/08/28 06:00:25;;;;;;;0.57;0.43;;;11.20;99.90;;;;;;5055966;28;20052;-72
2023/08/28 06:02:52;;;;;;;0.30;0.30;;;11.20;99.90;;;;;;5060103;28;20048;-72
2023/08/28 06:05:19;;;;;;;0.95;0.50;;;11.30;99.90;;;;;;5079576;28;20071;-72
2023/08/28 06:07:46;;;;;;;0.52;0.40;;;11.30;99.90;;;;;;5068269;28;20080;-74
2023/08/28 06:10:17;;;;;;;0.40;0.40;;;11.40;99.90;;;;;;5037889;28;20098;-73
2023/08/28 06:12:48;;;;;;;0.50;0.40;;;11.50;1.00;;;;;;5056898;28;20132;-73
2023/08/28 06:15:18;;;;;;;0.57;0.47;;;11.50;1.00;;;;;;5045369;28;20052;-73
2023/08/28 06:17:46;;;;;;;0.35;0.35;;;11.60;1.00;;;;;;5073688;28;20044;-73
2023/08/28 06:20:13;;;;;;;0.40;0.40;;;11.70;1.00;;;;;;5058928;28;20381;-73
2023/08/28 06:22:41;;;;;;;0.30;0.30;;;11.70;1.00;;;;;;5067616;28;20051;-72
2023/08/28 06:25:08;;;;;;;0.40;0.40;;;11.80;1.00;;;;;;5061837;28;20094;-72
2023/08/28 06:27:35;;;;;;;0.73;0.50;;;11.90;1.00;;;;;;5073088;28;20048;-72
2023/08/28 06:30:04;;;;;;;0.30;0.30;;;11.90;1.00;;;;;;5046290;28;20127;-73
2023/08/28 06:32:30;;;;;;;0.30;0.30;;;12.00;1.00;;;;;;5043598;28;20222;-72
2023/08/28 06:34:57;;;;;;;0.25;0.25;;;12.10;1.00;;;;;;5060901;28;20058;-72
2023/08/28 06:37:24;;;;;;;0.57;0.30;;;12.20;1.00;;;;;;5041613;28;20040;-72
2023/08/28 06:39:54;;;;;;;0.32;0.32;;;12.20;1.00;;;;;;5042465;28;20490;-73
2023/08/28 06:42:22;;;;;;;0.30;0.30;;;12.30;1.00;;;;;;5059685;28;20052;-74
2023/08/28 06:44:50;;;;;;;0.40;0.40;;;12.40;1.00;;;;;;5053730;28;20870;-74
2023/08/28 06:47:17;;;;;;;0.30;0.30;;;12.50;1.00;;;;;;5060223;28;20403;-73
2023/08/28 06:49:44;;;;;;;0.30;0.30;;;12.60;1.00;;;;;;5059472;28;20075;-73
2023/08/28 06:52:10;;;;;;;0.98;0.50;;;12.70;1.00;;;;;;5060881;28;20052;-72
2023/08/28 06:54:37;;;;;;;0.68;0.60;;;12.90;1.00;;;;;;5051841;28;20452;-73
2023/08/28 06:57:17;;;;;;;0.50;0.50;;;13.00;1.00;;;;;;5056078;28;20354;-73
2023/08/28 06:59:44;;;;;;;0.50;0.50;;;13.20;1.00;;;;;;5057033;28;20397;-74
2023/08/28 07:02:11;;;;;;;0.40;0.40;;;13.30;1.00;;;;;;5053570;28;20040;-72
2023/08/28 07:04:38;;;;;;;0.50;0.50;;;13.40;1.00;;;;;;5042721;28;20056;-82
2023/08/28 07:07:05;;;;;;;0.65;0.57;;;13.60;1.00;;;;;;5043246;28;20048;-73
2023/08/28 07:09:32;;;;;;;0.63;0.63;;;13.70;1.00;;;;;;5058552;28;20113;-72
2023/08/28 07:11:59;;;;;;;0.70;0.50;;;13.80;99.90;;;;;;5054779;28;20799;-72
2023/08/28 07:14:26;;;;;;;1.05;0.75;;;13.90;99.90;;;;;;5060007;28;20048;-74
2023/08/28 07:16:52;;;;;;;0.55;0.55;;;13.90;99.90;;;;;;5058059;28;20045;-74
2023/08/28 07:19:19;;;;;;;0.80;0.70;;;14.10;99.90;;;;;;5058506;28;20492;-71
2023/08/28 07:21:46;;;;;;;0.52;0.50;;;14.20;99.90;;;;;;5055332;28;20751;-72
2023/08/28 07:24:13;;;;;;;1.10;0.80;;;14.20;99.90;;;;;;5059841;28;20428;-71
2023/08/28 07:26:40;;;;;;;0.68;0.55;;;14.30;99.90;;;;;;5056091;28;20052;-71
2023/08/28 07:29:07;;;;;;;0.75;0.70;;;14.40;99.90;;;;;;5058642;28;20052;-71
2023/08/28 07:31:34;;;;;;;0.63;0.60;;;14.40;99.90;;;;;;5056174;28;20161;-71
2023/08/28 07:34:03;;;;;;;0.55;0.50;;;14.50;99.90;;;;;;5052591;28;20044;-71
2023/08/28 07:36:30;;;;;;;1.13;0.80;;;14.50;99.90;;;;;;5055360;28;20051;-71
2023/08/28 07:38:57;;;;;;;0.73;0.50;;;14.60;99.90;;;;;;5056704;28;20044;-71
2023/08/28 07:41:23;;;;;;;0.40;0.40;;;14.60;88.70;;;;;;5056459;28;20048;-71
2023/08/28 07:43:50;;;;;;;0.80;0.80;;;14.70;40.90;;;;;;5059848;28;20480;-72
2023/08/28 07:46:17;;;;;;;0.93;0.75;;;14.70;5.70;;;;;;5059121;28;20040;-72
2023/08/28 07:48:44;;;;;;;1.05;0.80;;;14.70;1.00;;;;;;5058248;28;20201;-71
2023/08/28 07:51:11;;;;;;;0.90;0.70;;;14.80;17.20;;;;;;5056036;28;20113;-71
2023/08/28 07:53:39;;;;;;;0.70;0.70;;;14.90;1.00;;;;;;5039957;28;20056;-71
2023/08/28 07:56:06;;;;;;;0.80;0.68;;;15.00;1.00;;;;;;5090834;28;20871;-71
2023/08/28 07:58:33;;;;;;;1.10;1.00;;;15.00;1.00;;;;;;5060105;28;20288;-72
2023/08/28 08:01:00;;;;;;;0.98;0.80;;;15.10;1.00;;;;;;5054720;28;20064;-72
2023/08/28 08:03:27;;;;;;;0.75;0.70;;;15.10;99.90;;;;;;5084732;28;20048;-71
2023/08/28 08:05:55;;;;;;;0.90;0.80;;;15.10;99.90;;;;;;5049128;28;20057;-72
2023/08/28 08:08:22;;;;;;;1.50;1.00;;;15.20;99.90;;;;;;5040402;28;20046;-72
2023/08/28 08:10:49;;;;;;;1.15;0.80;;;15.30;99.90;;;;;;5056579;28;20055;-71
2023/08/28 08:13:17;;;;;;;1.73;1.20;;;15.30;99.90;;;;;;5068826;28;20049;-71
2023/08/28 08:15:43;;;;;;;1.30;0.90;;;15.30;61.00;;;;;;5059340;28;20539;-72
2023/08/28 08:18:10;;;;;;;1.15;1.05;;;15.30;99.90;;;;;;5056784;28;20044;-72
2023/08/28 08:20:37;;;;;;;1.73;0.93;;;15.40;99.90;;;;;;5056975;28;20052;-71
2023/08/28 08:23:04;;;;;;;0.70;0.70;;;15.50;49.40;;;;;;5056218;28;20056;-71
2023/08/28 08:25:33;;;;;;;1.27;1.10;;;15.70;99.90;;;;;;5056329;28;20483;-71
2023/08/28 08:28:02;;;;;;;1.05;0.80;;;15.80;99.90;;;;;;5081293;28;20127;-71
2023/08/28 08:30:29;;;;;;;1.10;0.93;;;16.00;99.90;;;;;;5057799;28;20048;-72
2023/08/28 08:32:56;;;;;;;1.02;0.90;;;16.20;1.00;;;;;;5038385;28;20052;-72
2023/08/28 08:35:24;;;;;;;1.15;1.00;;;16.30;1.00;;;;;;5042716;28;20044;-72
2023/08/28 08:37:55;;;;;;;0.95;0.80;;;16.30;99.90;;;;;;5054198;28;20385;-72
2023/08/28 08:40:25;;;;;;;0.93;0.80;;;16.40;99.90;;;;;;5054811;28;20063;-71
2023/08/28 08:42:55;;;;;;;0.85;0.70;;;16.50;1.00;;;;;;5052963;28;20056;-72
2023/08/28 08:45:28;;;;;;;1.13;1.00;;;16.60;1.00;;;;;;5056394;28;20056;-72
2023/08/28 08:47:59;;;;;;;;;;;16.70;99.90;;;;;;5053333;28;20045;-72
2023/08/28 08:50:27;;;;;;;1.65;1.10;;;16.80;1.00;;;;;;5054451;28;19946;-72
2023/08/28 08:52:54;;;;;;;1.02;0.93;;;16.80;1.00;;;;;;5055070;28;20339;-72
2023/08/28 08:55:40;;;;;;;1.00;0.68;;;16.90;1.00;;;;;;5037837;28;20048;-72
2023/08/28 08:58:10;;;;;;;0.77;0.70;;;17.00;99.90;;;;;;5069381;28;20055;-72
2023/08/28 09:00:38;;;;;;;1.13;0.82;;;17.10;99.90;;;;;;5070807;28;20052;-72
2023/08/28 09:03:05;;;;;;;0.60;0.60;;;17.10;99.90;;;;;;5050058;28;20525;-71
2023/08/28 09:05:33;;;;;;;0.52;0.50;;;17.20;99.90;;;;;;5049883;28;20130;-71
2023/08/28 09:08:00;;;;;;;0.75;0.75;;;17.40;99.90;;;;;;5057806;28;20484;-72
2023/08/28 09:10:27;;;;;;;1.23;0.82;;;17.60;1.00;;;;;;5045182;28;20506;-72
2023/08/28 09:12:54;;;;;;;1.30;0.98;;;17.50;99.90;;;;;;5060103;28;20518;-72
2023/08/28 09:15:21;;;;;;;1.67;1.02;;;17.60;99.90;;;;;;5058482;28;20363;-72
2023/08/28 09:17:48;;;;;;;1.40;0.68;;;17.70;99.90;;;;;;5057700;28;20048;-73
2023/08/28 09:20:18;;;;;;;0.88;0.80;;;17.70;99.90;;;;;;5055919;28;20056;-72
2023/08/28 09:22:46;;;;;;;0.90;0.82;;;17.70;99.90;;;;;;5055361;28;20044;-72
2023/08/28 09:25:23;;;;;;;0.95;0.82;;;17.70;1.00;;;;;;5052472;28;20076;-72
2023/08/28 09:27:54;;;;;;;1.30;0.90;;;17.80;99.90;;;;;;5062636;28;20045;-72
2023/08/28 09:30:37;;;;;;;1.13;1.02;;;17.80;30.80;;;;;;5057965;28;20462;-71
2023/08/28 09:33:05;;;;;;;;;;;17.80;22.40;;;;;;5053792;28;20901;-71
2023/08/28 09:35:39;;;;;;;1.00;0.90;;;17.70;1.00;;;;;;5053580;28;19930;-72
2023/08/28 09:38:07;;;;;;;0.60;0.60;;;17.70;1.00;;;;;;5070653;28;20555;-71
2023/08/28 09:40:36;;;;;;;0.60;0.50;;;17.70;1.00;;;;;;5054734;28;20144;-71
2023/08/28 09:43:15;;;;;;;0.68;0.60;;;17.90;1.00;;;;;;5054209;28;20044;-71
2023/08/28 09:45:43;;;;;;;0.50;0.50;;;18.10;1.00;;;;;;5086469;28;20123;-71
2023/08/28 09:48:10;;;;;;;0.70;0.50;;;18.30;1.00;;;;;;5059760;28;20053;-71
2023/08/28 09:50:38;;;;;;;1.63;0.70;;;18.50;1.00;;;;;;5058874;28;20053;-71
2023/08/28 09:53:06;;;;;;;0.60;0.60;;;18.50;1.00;;;;;;5047563;28;20131;-71
2023/08/28 09:55:39;;;;;;;1.05;0.90;;;18.60;1.00;;;;;;5057567;28;20055;-71
2023/08/28 09:58:09;;;;;;;;;;;18.70;1.00;;;;;;5056808;28;20052;-72
2023/08/28 10:00:38;;;;;;;1.92;0.88;;;19.00;1.00;;;;;;5080252;28;20384;-72
2023/08/28 10:03:12;;;;;;;1.48;1.10;;;19.20;1.00;;;;;;5045504;28;20140;-72
2023/08/28 10:05:42;;;;;;;0.70;0.60;;;19.40;1.00;;;;;;5050967;28;20071;-71
2023/08/28 10:08:10;;;;;;;0.70;0.70;;;19.40;1.00;;;;;;5053278;28;20522;-72
2023/08/28 10:10:38;;;;;;;0.88;0.75;;;19.50;1.00;;;;;;5055185;28;20143;-71
2023/08/28 10:13:06;;;;;;;0.98;0.80;;;19.50;1.00;;;;;;5068640;28;20052;-72
2023/08/28 10:15:34;;;;;;;1.00;0.80;;;19.50;1.00;;;;;;5036516;28;20064;-71
2023/08/28 10:18:04;;;;;;;0.85;0.63;;;19.50;1.00;;;;;;5043927;28;20049;-71
2023/08/28 10:20:31;;;;;;;0.73;0.60;;;19.50;1.00;;;;;;5024311;28;20049;-71
2023/08/28 10:22:57;;;;;;;0.60;0.60;;;19.50;1.00;;;;;;5066756;28;20117;-71
2023/08/28 10:25:25;;;;;;;0.63;0.60;;;19.70;1.00;;;;;;5032041;28;20065;-71
2023/08/28 10:27:52;;;;;;;0.55;0.55;;;19.90;1.00;;;;;;5041847;28;20281;-71
2023/08/28 10:30:21;;;;;;;1.33;0.93;;;19.80;1.00;;;;;;5019568;28;20142;-71
2023/08/28 10:32:49;;;;;;;1.02;0.80;;;19.70;1.00;;;;;;5051317;28;21428;-71
2023/08/28 10:35:16;;;;;;;0.90;0.60;;;19.80;1.00;;;;;;5053886;28;20109;-72
2023/08/28 10:37:43;;;;;;;2.03;0.85;;;19.70;1.00;;;;;;5052976;28;20207;-72
2023/08/28 10:40:10;;;;;;;1.45;0.88;;;19.90;1.00;;;;;;5051553;28;20107;-72
2023/08/28 10:42:37;;;;;;;1.05;0.70;;;19.90;1.00;;;;;;5053818;28;20052;-71
2023/08/28 10:45:05;;;;;;;1.00;0.70;;;20.00;1.00;;;;;;5052921;28;20040;-72
2023/08/28 10:47:31;;;;;;;0.43;0.43;;;20.20;1.00;;;;;;5052098;28;20048;-71
2023/08/28 10:49:58;;;;;;;0.82;0.60;;;20.30;1.00;;;;;;5071489;28;20504;-72
2023/08/28 10:52:27;;;;;;;0.30;0.30;;;20.30;1.00;;;;;;5053914;28;20060;-71
2023/08/28 10:54:54;;;;;;;0.55;0.40;;;20.20;1.00;;;;;;5041643;28;20045;-71
2023/08/28 10:57:22;;;;;;;1.27;0.60;;;20.40;1.00;;;;;;5026925;28;20069;-72
2023/08/28 10:59:49;;;;;;;0.50;0.50;;;20.40;1.00;;;;;;5045658;28;20536;-71
2023/08/28 11:02:16;;;;;;;0.95;0.55;;;20.30;1.00;;;;;;5054037;28;20075;-73
2023/08/28 11:04:43;;;;;;;0.95;0.73;;;20.30;1.00;;;;;;5020860;28;20483;-73
2023/08/28 11:07:22;;;;;;;0.93;0.68;;;20.20;1.00;;;;;;5055147;28;20052;-72
2023/08/28 11:09:49;;;;;;;0.70;0.68;;;20.30;1.00;;;;;;5053628;28;20059;-73
2023/08/28 11:12:19;;;;;;;0.98;0.70;;;20.30;1.00;;;;;;5050081;28;20072;-72
2023/08/28 11:14:52;;;;;;;1.42;0.73;;;20.30;1.00;;;;;;5055248;28;20098;-73
2023/08/28 11:17:20;;;;;;;1.00;0.75;;;20.30;1.00;;;;;;5052403;28;20049;-73
2023/08/28 11:19:54;;;;;;;0.52;0.50;;;20.10;1.00;;;;;;5051041;28;20072;-73
2023/08/28 11:22:31;;;;;;;1.70;0.90;;;20.00;1.00;;;;;;5052128;28;20137;-73
2023/08/28 11:24:58;;;;;;;0.70;0.70;;;19.90;1.00;;;;;;5052005;28;20048;-73
2023/08/28 11:27:31;;;;;;;0.88;0.65;;;20.00;1.00;;;;;;5037111;28;20055;-73
2023/08/28 11:29:59;;;;;;;1.00;0.70;;;20.00;1.00;;;;;;5052080;28;20214;-73
2023/08/28 11:32:26;;;;;;;0.98;0.60;;;20.10;1.00;;;;;;5058552;28;20472;-73
2023/08/28 11:34:53;;;;;;;0.70;0.70;;;20.30;1.00;;;;;;5023322;28;20135;-73
2023/08/28 11:37:30;;;;;;;0.60;0.60;;;20.60;1.00;;;;;;5056030;28;20052;-73
2023/08/28 11:39:57;;;;;;;0.60;0.60;;;21.00;1.00;;;;;;5057832;28;20428;-73
2023/08/28 11:42:29;;;;;;;0.50;0.50;;;21.20;1.00;;;;;;5055273;28;20120;-73
2023/08/28 11:44:56;;;;;;;;;;;21.20;1.00;;;;;;5057899;28;20776;-73
2023/08/28 11:47:26;;;;;;;0.65;0.60;;;21.00;1.00;;;;;;5054837;28;19928;-74
2023/08/28 11:49:54;;;;;;;0.70;0.70;;;21.00;1.00;;;;;;5055168;28;20110;-73
2023/08/28 11:52:21;;;;;;;0.50;0.50;;;21.20;1.00;;;;;;5053915;28;20110;-72
2023/08/28 11:54:48;;;;;;;0.77;0.73;;;21.30;1.00;;;;;;5050856;28;20056;-72
2023/08/28 11:57:16;;;;;;;0.50;0.50;;;21.80;1.00;;;;;;5047022;28;20068;-73
2023/08/28 11:59:44;;;;;;;0.70;0.50;;;21.80;1.00;;;;;;5051643;28;20052;-72
2023/08/28 12:02:14;;;;;;;0.50;0.50;;;21.70;1.00;;;;;;5054671;28;20658;-73
2023/08/28 12:04:41;;;;;;;0.70;0.70;;;21.60;1.00;;;;;;5047805;28;20057;-72
2023/08/28 12:07:27;;;;;;;0.50;0.50;;;21.40;1.00;;;;;;5049891;28;20052;-72
2023/08/28 12:09:54;;;;;;;0.63;0.50;;;21.30;1.00;;;;;;5046000;28;20044;-73
2023/08/28 12:12:22;;;;;;;0.47;0.40;;;21.20;1.00;;;;;;5052171;28;20163;-73
2023/08/28 12:14:49;;;;;;;0.40;0.40;;;21.20;1.00;;;;;;5051604;28;21950;-72
2023/08/28 12:17:17;;;;;;;0.88;0.70;;;21.20;1.00;;;;;;5052024;28;20048;-73
2023/08/28 12:19:44;;;;;;;0.70;0.50;;;21.20;1.00;;;;;;5048866;28;20052;-72
2023/08/28 12:22:11;;;;;;;0.50;0.50;;;21.30;1.00;;;;;;5046145;28;20152;-73
2023/08/28 12:24:42;;;;;;;0.40;0.40;;;21.20;1.00;;;;;;5030420;28;20054;-73
2023/08/28 12:27:13;;;;;;;0.47;0.45;;;21.40;1.00;;;;;;5050548;28;20223;-72
2023/08/28 12:29:43;;;;;;;0.90;0.60;;;21.50;1.00;;;;;;5029373;28;20452;-72
2023/08/28 12:32:17;;;;;;;1.20;0.60;;;21.60;1.00;;;;;;5036958;28;20775;-73
2023/08/28 12:34:45;;;;;;;0.70;0.50;;;22.30;1.00;;;;;;5031350;28;20134;-73
2023/08/28 12:37:13;;;;;;;0.60;0.60;;;22.60;1.00;;;;;;5035885;28;20137;-73
2023/08/28 12:39:50;;;;;;;0.73;0.40;;;22.90;1.00;;;;;;5051160;28;20057;-73
2023/08/28 12:42:18;;;;;;;0.50;0.35;;;23.00;1.00;;;;;;5036734;28;20121;-72
2023/08/28 12:44:44;;;;;;;0.30;0.30;;;23.00;1.00;;;;;;5054285;28;20151;-72
2023/08/28 12:47:12;;;;;;;0.43;0.40;;;23.00;1.00;;;;;;5056516;28;20332;-73
2023/08/28 12:49:40;;;;;;;0.70;0.50;;;22.90;1.00;;;;;;5041006;28;20048;-73
2023/08/28 12:52:10;;;;;;;0.40;0.40;;;23.50;1.00;;;;;;5052989;28;20063;-73
2023/08/28 12:54:41;;;;;;;0.30;0.30;;;24.00;1.00;;;;;;5055717;28;20045;-73
2023/08/28 12:57:10;;;;;;;0.52;0.50;;;24.10;1.00;;;;;;5048712;28;20048;-76
2023/08/28 12:59:37;;;;;;;0.60;0.47;;;23.80;1.00;;;;;;5064899;28;20048;-73